sensor_id;sensor_type;location;lat;lon;timestamp;pressure;altitude;pressure_sealevel;temperature
67758;BMP180;54562;47.620;18.786;2022-12-17T00:02:40;97872.20;;;-0.50
67758;BMP180;54562;47.620;18.786;2022-12-17T00:06:03;97871.00;;;-0.50
67758;BMP180;54562;47.620;18.786;2022-12-17T00:09:41;97872.60;;;-0.50
67758;BMP180;54562;47.620;18.786;2022-12-17T00:13:11;97875.20;;;-0.50
67758;BMP180;54562;47.620;18.786;2022-12-17T00:16:38;97881.20;;;-0.50
67758;BMP180;54562;47.620;18.786;2022-12-17T00:20:02;97865.40;;;-0.50
67758;BMP180;54562;47.620;18.786;2022-12-17T00:23:25;97851.00;;;-0.50
67758;BMP180;54562;47.620;18.786;2022-12-17T00:26:48;97850.40;;;-0.50
67758;BMP180;54562;47.620;18.786;2022-12-17T00:30:12;97842.00;;;-0.50
67758;BMP180;54562;47.620;18.786;2022-12-17T00:33:35;97848.40;;;-0.50
67758;BMP180;54562;47.620;18.786;2022-12-17T00:36:52;97845.20;;;-0.60
67758;BMP180;54562;47.620;18.786;2022-12-17T00:40:24;97850.20;;;-0.60
67758;BMP180;54562;47.620;18.786;2022-12-17T00:43:47;97867.80;;;-0.60
67758;BMP180;54562;47.620;18.786;2022-12-17T00:47:11;97862.20;;;-0.60
67758;BMP180;54562;47.620;18.786;2022-12-17T00:50:34;97864.60;;;-0.60
67758;BMP180;54562;47.620;18.786;2022-12-17T00:54:00;97859.80;;;-0.60
67758;BMP180;54562;47.620;18.786;2022-12-17T00:57:24;97852.80;;;-0.60
67758;BMP180;54562;47.620;18.786;2022-12-17T01:00:47;97839.40;;;-0.60
67758;BMP180;54562;47.620;18.786;2022-12-17T01:04:11;97826.80;;;-0.70
67758;BMP180;54562;47.620;18.786;2022-12-17T01:07:35;97831.60;;;-0.80
67758;BMP180;54562;47.620;18.786;2022-12-17T01:11:01;97847.80;;;-0.80
67758;BMP180;54562;47.620;18.786;2022-12-17T01:14:26;97869.60;;;-0.80
67758;BMP180;54562;47.620;18.786;2022-12-17T01:17:49;97900.40;;;-0.80
67758;BMP180;54562;47.620;18.786;2022-12-17T01:21:12;97921.80;;;-0.80
67758;BMP180;54562;47.620;18.786;2022-12-17T01:24:35;97937.00;;;-0.80
67758;BMP180;54562;47.620;18.786;2022-12-17T01:28:00;97948.00;;;-0.80
67758;BMP180;54562;47.620;18.786;2022-12-17T01:31:23;97958.00;;;-0.80
67758;BMP180;54562;47.620;18.786;2022-12-17T01:37:53;97952.00;;;-0.90
67758;BMP180;54562;47.620;18.786;2022-12-17T01:41:15;97950.20;;;-0.90
67758;BMP180;54562;47.620;18.786;2022-12-17T01:44:53;97941.20;;;-0.90
67758;BMP180;54562;47.620;18.786;2022-12-17T01:48:18;97934.00;;;-0.90
67758;BMP180;54562;47.620;18.786;2022-12-17T01:51:41;97933.80;;;-0.90
67758;BMP180;54562;47.620;18.786;2022-12-17T01:55:07;97955.40;;;-0.90
67758;BMP180;54562;47.620;18.786;2022-12-17T01:58:30;97964.40;;;-0.90
67758;BMP180;54562;47.620;18.786;2022-12-17T02:01:53;97958.00;;;-0.90
67758;BMP180;54562;47.620;18.786;2022-12-17T02:05:18;97952.60;;;-0.90
67758;BMP180;54562;47.620;18.786;2022-12-17T02:08:51;97959.20;;;-0.92
67758;BMP180;54562;47.620;18.786;2022-12-17T02:12:26;97959.20;;;-0.92
67758;BMP180;54562;47.620;18.786;2022-12-17T02:15:55;97949.80;;;-0.94
67758;BMP180;54562;47.620;18.786;2022-12-17T02:19:28;97946.00;;;-0.90
67758;BMP180;54562;47.620;18.786;2022-12-17T02:23:03;97942.20;;;-0.92
67758;BMP180;54562;47.620;18.786;2022-12-17T02:26:37;97946.00;;;-0.98
67758;BMP180;54562;47.620;18.786;2022-12-17T02:30:08;97944.20;;;-0.92
67758;BMP180;54562;47.620;18.786;2022-12-17T02:33:31;97951.20;;;-0.90
67758;BMP180;54562;47.620;18.786;2022-12-17T02:36:55;97951.60;;;-0.90
67758;BMP180;54562;47.620;18.786;2022-12-17T02:40:20;97952.00;;;-0.92
67758;BMP180;54562;47.620;18.786;2022-12-17T02:43:45;97955.80;;;-0.96
67758;BMP180;54562;47.620;18.786;2022-12-17T02:47:10;97964.00;;;-0.98
67758;BMP180;54562;47.620;18.786;2022-12-17T02:50:33;97963.60;;;-1.00
67758;BMP180;54562;47.620;18.786;2022-12-17T02:54:00;97963.20;;;-1.00
67758;BMP180;54562;47.620;18.786;2022-12-17T02:57:23;97972.80;;;-1.10
67758;BMP180;54562;47.620;18.786;2022-12-17T03:00:48;97977.00;;;-1.10
67758;BMP180;54562;47.620;18.786;2022-12-17T03:04:11;97992.00;;;-1.12
67758;BMP180;54562;47.620;18.786;2022-12-17T03:07:34;97992.00;;;-1.20
67758;BMP180;54562;47.620;18.786;2022-12-17T03:10:58;97992.00;;;-1.20
67758;BMP180;54562;47.620;18.786;2022-12-17T03:14:21;98007.80;;;-1.20
67758;BMP180;54562;47.620;18.786;2022-12-17T03:17:45;98019.20;;;-1.20
67758;BMP180;54562;47.620;18.786;2022-12-17T03:21:08;98009.00;;;-1.26
67758;BMP180;54562;47.620;18.786;2022-12-17T03:24:27;98008.60;;;-1.28
67758;BMP180;54562;47.620;18.786;2022-12-17T03:27:50;98018.00;;;-1.30
67758;BMP180;54562;47.620;18.786;2022-12-17T03:31:16;98022.20;;;-1.30
67758;BMP180;54562;47.620;18.786;2022-12-17T03:34:39;98020.40;;;-1.30
67758;BMP180;54562;47.620;18.786;2022-12-17T03:38:07;98029.80;;;-1.30
67758;BMP180;54562;47.620;18.786;2022-12-17T03:41:30;98041.40;;;-1.30
67758;BMP180;54562;47.620;18.786;2022-12-17T03:44:53;98043.00;;;-1.32
67758;BMP180;54562;47.620;18.786;2022-12-17T03:48:17;98039.80;;;-1.40
67758;BMP180;54562;47.620;18.786;2022-12-17T03:51:40;98027.00;;;-1.40
67758;BMP180;54562;47.620;18.786;2022-12-17T03:55:04;98033.40;;;-1.40
67758;BMP180;54562;47.620;18.786;2022-12-17T03:58:28;98039.00;;;-1.40
67758;BMP180;54562;47.620;18.786;2022-12-17T04:01:52;98043.40;;;-1.46
67758;BMP180;54562;47.620;18.786;2022-12-17T04:05:15;98050.80;;;-1.50
67758;BMP180;54562;47.620;18.786;2022-12-17T04:08:39;98051.20;;;-1.50
67758;BMP180;54562;47.620;18.786;2022-12-17T04:12:02;98045.40;;;-1.50
67758;BMP180;54562;47.620;18.786;2022-12-17T04:15:40;98044.00;;;-1.60
67758;BMP180;54562;47.620;18.786;2022-12-17T04:19:03;98043.00;;;-1.60
67758;BMP180;54562;47.620;18.786;2022-12-17T04:22:27;98045.40;;;-1.60
67758;BMP180;54562;47.620;18.786;2022-12-17T04:25:50;98053.60;;;-1.60
67758;BMP180;54562;47.620;18.786;2022-12-17T04:29:13;98049.20;;;-1.68
67758;BMP180;54562;47.620;18.786;2022-12-17T04:32:37;98058.60;;;-1.70
67758;BMP180;54562;47.620;18.786;2022-12-17T04:36:00;98064.00;;;-1.70
67758;BMP180;54562;47.620;18.786;2022-12-17T04:39:23;98064.60;;;-1.70
67758;BMP180;54562;47.620;18.786;2022-12-17T04:42:47;98073.20;;;-1.70
67758;BMP180;54562;47.620;18.786;2022-12-17T04:46:10;98074.00;;;-1.80
67758;BMP180;54562;47.620;18.786;2022-12-17T04:49:32;98081.00;;;-1.80
67758;BMP180;54562;47.620;18.786;2022-12-17T04:53:01;98078.60;;;-1.80
67758;BMP180;54562;47.620;18.786;2022-12-17T04:56:25;98070.20;;;-1.80
67758;BMP180;54562;47.620;18.786;2022-12-17T04:59:48;98054.00;;;-1.84
67758;BMP180;54562;47.620;18.786;2022-12-17T05:03:13;98054.00;;;-1.90
67758;BMP180;54562;47.620;18.786;2022-12-17T05:06:37;98061.80;;;-1.90
67758;BMP180;54562;47.620;18.786;2022-12-17T05:10:01;98063.20;;;-1.90
67758;BMP180;54562;47.620;18.786;2022-12-17T05:13:24;98062.00;;;-1.90
67758;BMP180;54562;47.620;18.786;2022-12-17T05:16:47;98069.60;;;-1.90
67758;BMP180;54562;47.620;18.786;2022-12-17T05:20:11;98081.00;;;-1.90
67758;BMP180;54562;47.620;18.786;2022-12-17T05:23:34;98081.20;;;-1.90
67758;BMP180;54562;47.620;18.786;2022-12-17T05:26:57;98097.00;;;-1.90
67758;BMP180;54562;47.620;18.786;2022-12-17T05:30:21;98113.80;;;-1.92
67758;BMP180;54562;47.620;18.786;2022-12-17T05:33:44;98108.60;;;-1.96
67758;BMP180;54562;47.620;18.786;2022-12-17T05:37:07;98097.00;;;-1.94
67758;BMP180;54562;47.620;18.786;2022-12-17T05:40:31;98101.40;;;-2.00
67758;BMP180;54562;47.620;18.786;2022-12-17T05:43:54;98109.60;;;-2.00
67758;BMP180;54562;47.620;18.786;2022-12-17T05:47:17;98119.20;;;-2.00
67758;BMP180;54562;47.620;18.786;2022-12-17T05:50:41;98130.40;;;-2.00
67758;BMP180;54562;47.620;18.786;2022-12-17T05:54:05;98142.60;;;-2.00
67758;BMP180;54562;47.620;18.786;2022-12-17T05:57:28;98156.40;;;-2.00
67758;BMP180;54562;47.620;18.786;2022-12-17T06:01:02;98175.20;;;-2.00
67758;BMP180;54562;47.620;18.786;2022-12-17T06:04:26;98187.60;;;-2.00
67758;BMP180;54562;47.620;18.786;2022-12-17T06:07:50;98191.80;;;-2.00
67758;BMP180;54562;47.620;18.786;2022-12-17T06:11:13;98197.40;;;-2.00
67758;BMP180;54562;47.620;18.786;2022-12-17T06:14:36;98201.40;;;-2.00
67758;BMP180;54562;47.620;18.786;2022-12-17T06:18:00;98210.40;;;-2.00
67758;BMP180;54562;47.620;18.786;2022-12-17T06:21:24;98223.80;;;-2.00
67758;BMP180;54562;47.620;18.786;2022-12-17T06:24:48;98220.20;;;-2.02
67758;BMP180;54562;47.620;18.786;2022-12-17T06:28:11;98216.20;;;-2.10
67758;BMP180;54562;47.620;18.786;2022-12-17T06:31:34;98211.60;;;-2.10
67758;BMP180;54562;47.620;18.786;2022-12-17T06:34:57;98218.20;;;-2.10
67758;BMP180;54562;47.620;18.786;2022-12-17T06:38:20;98227.40;;;-2.16
67758;BMP180;54562;47.620;18.786;2022-12-17T06:41:58;98236.00;;;-2.20
67758;BMP180;54562;47.620;18.786;2022-12-17T06:45:21;98232.20;;;-2.20
67758;BMP180;54562;47.620;18.786;2022-12-17T06:48:45;98233.60;;;-2.20
67758;BMP180;54562;47.620;18.786;2022-12-17T06:52:08;98246.60;;;-2.28
67758;BMP180;54562;47.620;18.786;2022-12-17T06:55:31;98257.60;;;-2.30
67758;BMP180;54562;47.620;18.786;2022-12-17T06:58:54;98273.00;;;-2.30
67758;BMP180;54562;47.620;18.786;2022-12-17T07:02:18;98295.00;;;-2.30
67758;BMP180;54562;47.620;18.786;2022-12-17T07:05:42;98299.20;;;-2.30
67758;BMP180;54562;47.620;18.786;2022-12-17T07:09:06;98299.40;;;-2.30
67758;BMP180;54562;47.620;18.786;2022-12-17T07:12:29;98292.80;;;-2.30
67758;BMP180;54562;47.620;18.786;2022-12-17T07:15:48;98299.20;;;-2.24
67758;BMP180;54562;47.620;18.786;2022-12-17T07:19:14;98300.80;;;-2.20
67758;BMP180;54562;47.620;18.786;2022-12-17T07:22:38;98320.80;;;-2.20
67758;BMP180;54562;47.620;18.786;2022-12-17T07:26:00;98331.60;;;-2.20
67758;BMP180;54562;47.620;18.786;2022-12-17T07:29:24;98337.20;;;-2.20
67758;BMP180;54562;47.620;18.786;2022-12-17T07:32:56;98331.80;;;-2.20
67758;BMP180;54562;47.620;18.786;2022-12-17T07:36:19;98334.40;;;-2.20
67758;BMP180;54562;47.620;18.786;2022-12-17T07:39:42;98327.40;;;-2.20
67758;BMP180;54562;47.620;18.786;2022-12-17T07:43:12;98323.20;;;-2.20
67758;BMP180;54562;47.620;18.786;2022-12-17T07:46:36;98328.60;;;-2.20
67758;BMP180;54562;47.620;18.786;2022-12-17T07:49:59;98328.00;;;-2.20
67758;BMP180;54562;47.620;18.786;2022-12-17T07:53:22;98331.00;;;-2.20
67758;BMP180;54562;47.620;18.786;2022-12-17T07:56:45;98322.80;;;-2.12
67758;BMP180;54562;47.620;18.786;2022-12-17T08:00:13;98338.00;;;-2.10
67758;BMP180;54562;47.620;18.786;2022-12-17T08:03:36;98331.00;;;-2.10
67758;BMP180;54562;47.620;18.786;2022-12-17T08:06:59;98336.80;;;-2.10
67758;BMP180;54562;47.620;18.786;2022-12-17T08:10:23;98346.80;;;-2.10
67758;BMP180;54562;47.620;18.786;2022-12-17T08:13:47;98355.20;;;-2.10
67758;BMP180;54562;47.620;18.786;2022-12-17T08:17:10;98364.80;;;-2.02
67758;BMP180;54562;47.620;18.786;2022-12-17T08:20:34;98372.60;;;-2.00
67758;BMP180;54562;47.620;18.786;2022-12-17T08:23:58;98379.00;;;-2.00
67758;BMP180;54562;47.620;18.786;2022-12-17T08:27:21;98380.40;;;-2.00
67758;BMP180;54562;47.620;18.786;2022-12-17T08:30:48;98384.80;;;-2.00
67758;BMP180;54562;47.620;18.786;2022-12-17T08:34:12;98385.60;;;-2.00
67758;BMP180;54562;47.620;18.786;2022-12-17T08:37:36;98392.20;;;-2.00
67758;BMP180;54562;47.620;18.786;2022-12-17T08:41:01;98398.00;;;-2.00
67758;BMP180;54562;47.620;18.786;2022-12-17T08:44:24;98405.20;;;-2.00
67758;BMP180;54562;47.620;18.786;2022-12-17T08:47:47;98409.00;;;-2.00
67758;BMP180;54562;47.620;18.786;2022-12-17T08:51:10;98413.20;;;-1.94
67758;BMP180;54562;47.620;18.786;2022-12-17T08:54:34;98419.80;;;-1.90
67758;BMP180;54562;47.620;18.786;2022-12-17T08:57:58;98426.60;;;-1.84
67758;BMP180;54562;47.620;18.786;2022-12-17T09:01:21;98426.40;;;-1.80
67758;BMP180;54562;47.620;18.786;2022-12-17T09:04:45;98437.60;;;-1.80
67758;BMP180;54562;47.620;18.786;2022-12-17T09:08:11;98448.40;;;-1.78
67758;BMP180;54562;47.620;18.786;2022-12-17T09:11:34;98448.20;;;-1.76
67758;BMP180;54562;47.620;18.786;2022-12-17T09:15:11;98442.80;;;-1.80
67758;BMP180;54562;47.620;18.786;2022-12-17T09:18:33;98441.80;;;-1.80
67758;BMP180;54562;47.620;18.786;2022-12-17T09:21:56;98456.60;;;-1.80
67758;BMP180;54562;47.620;18.786;2022-12-17T09:25:20;98451.60;;;-1.80
67758;BMP180;54562;47.620;18.786;2022-12-17T09:28:43;98447.00;;;-1.80
67758;BMP180;54562;47.620;18.786;2022-12-17T09:31:54;98447.80;;;-1.78
67758;BMP180;54562;47.620;18.786;2022-12-17T09:35:17;98453.20;;;-1.74
67758;BMP180;54562;47.620;18.786;2022-12-17T09:38:41;98460.00;;;-1.70
67758;BMP180;54562;47.620;18.786;2022-12-17T09:42:16;98453.60;;;-1.70
67758;BMP180;54562;47.620;18.786;2022-12-17T09:45:49;98467.20;;;-1.70
67758;BMP180;54562;47.620;18.786;2022-12-17T09:49:17;98462.20;;;-1.60
67758;BMP180;54562;47.620;18.786;2022-12-17T09:52:43;98458.00;;;-1.52
67758;BMP180;54562;47.620;18.786;2022-12-17T09:55:54;98461.40;;;-1.50
67758;BMP180;54562;47.620;18.786;2022-12-17T09:59:21;98445.20;;;-1.50
67758;BMP180;54562;47.620;18.786;2022-12-17T10:02:45;98441.00;;;-1.40
67758;BMP180;54562;47.620;18.786;2022-12-17T10:06:11;98455.20;;;-1.40
67758;BMP180;54562;47.620;18.786;2022-12-17T10:09:52;98483.00;;;-1.40
67758;BMP180;54562;47.620;18.786;2022-12-17T10:13:30;98498.60;;;-1.40
67758;BMP180;54562;47.620;18.786;2022-12-17T10:16:55;98490.80;;;-1.40
67758;BMP180;54562;47.620;18.786;2022-12-17T10:20:23;98501.80;;;-1.40
67758;BMP180;54562;47.620;18.786;2022-12-17T10:23:46;98514.60;;;-1.40
67758;BMP180;54562;47.620;18.786;2022-12-17T10:27:22;98525.40;;;-1.36
67758;BMP180;54562;47.620;18.786;2022-12-17T10:30:47;98526.00;;;-1.30
67758;BMP180;54562;47.620;18.786;2022-12-17T10:34:17;98524.20;;;-1.22
67758;BMP180;54562;47.620;18.786;2022-12-17T10:37:40;98527.00;;;-1.20
67758;BMP180;54562;47.620;18.786;2022-12-17T10:41:18;98526.00;;;-1.10
67758;BMP180;54562;47.620;18.786;2022-12-17T10:44:42;98524.80;;;-0.80
67758;BMP180;54562;47.620;18.786;2022-12-17T10:48:21;98541.20;;;-0.60
67758;BMP180;54562;47.620;18.786;2022-12-17T10:51:45;98550.60;;;-0.40
67758;BMP180;54562;47.620;18.786;2022-12-17T10:55:23;98558.60;;;-0.30
67758;BMP180;54562;47.620;18.786;2022-12-17T10:58:50;98557.60;;;-0.30
67758;BMP180;54562;47.620;18.786;2022-12-17T11:02:21;98560.80;;;-0.28
67758;BMP180;54562;47.620;18.786;2022-12-17T11:05:52;98567.00;;;-0.20
67758;BMP180;54562;47.620;18.786;2022-12-17T11:09:35;98566.80;;;-0.20
67758;BMP180;54562;47.620;18.786;2022-12-17T11:13:06;98578.00;;;-0.24
67758;BMP180;54562;47.620;18.786;2022-12-17T11:16:39;98586.40;;;-0.20
67758;BMP180;54562;47.620;18.786;2022-12-17T11:20:13;98571.80;;;-0.10
67758;BMP180;54562;47.620;18.786;2022-12-17T11:23:45;98578.00;;;-0.02
67758;BMP180;54562;47.620;18.786;2022-12-17T11:27:17;98599.80;;;-0.10
67758;BMP180;54562;47.620;18.786;2022-12-17T11:34:30;98620.60;;;-0.30
67758;BMP180;54562;47.620;18.786;2022-12-17T11:38:06;98618.00;;;-0.30
67758;BMP180;54562;47.620;18.786;2022-12-17T11:41:47;98622.00;;;-0.20
67758;BMP180;54562;47.620;18.786;2022-12-17T11:45:25;98622.80;;;-0.24
67758;BMP180;54562;47.620;18.786;2022-12-17T11:48:58;98625.40;;;-0.30
67758;BMP180;54562;47.620;18.786;2022-12-17T11:52:32;98624.00;;;-0.40
67758;BMP180;54562;47.620;18.786;2022-12-17T11:56:04;98627.40;;;-0.50
67758;BMP180;54562;47.620;18.786;2022-12-17T11:59:33;98644.00;;;-0.60
67758;BMP180;54562;47.620;18.786;2022-12-17T12:03:23;98644.20;;;-0.70
67758;BMP180;54562;47.620;18.786;2022-12-17T12:06:58;98652.40;;;-0.74
67758;BMP180;54562;47.620;18.786;2022-12-17T12:10:31;98655.80;;;-0.80
67758;BMP180;54562;47.620;18.786;2022-12-17T12:14:20;98664.00;;;-0.80
67758;BMP180;54562;47.620;18.786;2022-12-17T12:17:50;98660.40;;;-0.80
67758;BMP180;54562;47.620;18.786;2022-12-17T12:21:34;98663.60;;;-0.80
67758;BMP180;54562;47.620;18.786;2022-12-17T12:25:26;98671.60;;;-0.70
67758;BMP180;54562;47.620;18.786;2022-12-17T12:29:00;98676.60;;;-0.16
67758;BMP180;54562;47.620;18.786;2022-12-17T12:32:37;98663.40;;;-0.10
67758;BMP180;54562;47.620;18.786;2022-12-17T12:36:11;98664.80;;;-0.20
67758;BMP180;54562;47.620;18.786;2022-12-17T12:39:50;98659.80;;;-0.40
67758;BMP180;54562;47.620;18.786;2022-12-17T12:43:23;98655.60;;;-0.60
67758;BMP180;54562;47.620;18.786;2022-12-17T12:46:57;98672.40;;;-0.68
67758;BMP180;54562;47.620;18.786;2022-12-17T12:50:32;98675.60;;;-0.70
67758;BMP180;54562;47.620;18.786;2022-12-17T12:54:26;98669.20;;;-0.80
67758;BMP180;54562;47.620;18.786;2022-12-17T12:58:01;98680.20;;;-0.90
67758;BMP180;54562;47.620;18.786;2022-12-17T13:01:36;98692.40;;;-1.00
67758;BMP180;54562;47.620;18.786;2022-12-17T13:05:03;98708.40;;;-0.90
67758;BMP180;54562;47.620;18.786;2022-12-17T13:08:29;98736.40;;;-1.00
67758;BMP180;54562;47.620;18.786;2022-12-17T13:11:41;98759.60;;;-1.02
67758;BMP180;54562;47.620;18.786;2022-12-17T13:15:01;98747.60;;;-1.10
67758;BMP180;54562;47.620;18.786;2022-12-17T13:18:34;98769.40;;;-1.10
67758;BMP180;54562;47.620;18.786;2022-12-17T13:21:43;98771.20;;;-1.10
67758;BMP180;54562;47.620;18.786;2022-12-17T13:24:54;98764.60;;;-1.00
67758;BMP180;54562;47.620;18.786;2022-12-17T13:28:04;98763.20;;;-0.36
67758;BMP180;54562;47.620;18.786;2022-12-17T13:31:25;98772.00;;;-0.10
67758;BMP180;54562;47.620;18.786;2022-12-17T13:34:48;98779.00;;;0.10
67758;BMP180;54562;47.620;18.786;2022-12-17T13:38:08;98791.40;;;0.20
67758;BMP180;54562;47.620;18.786;2022-12-17T13:41:24;98785.60;;;0.00
67758;BMP180;54562;47.620;18.786;2022-12-17T13:44:39;98806.20;;;-0.10
67758;BMP180;54562;47.620;18.786;2022-12-17T13:47:55;98811.00;;;-0.26
67758;BMP180;54562;47.620;18.786;2022-12-17T13:51:17;98813.40;;;-0.50
67758;BMP180;54562;47.620;18.786;2022-12-17T13:54:26;98826.60;;;-0.74
67758;BMP180;54562;47.620;18.786;2022-12-17T13:57:35;98826.60;;;-0.90
67758;BMP180;54562;47.620;18.786;2022-12-17T14:00:42;98838.00;;;-1.00
67758;BMP180;54562;47.620;18.786;2022-12-17T14:03:58;98838.80;;;-1.10
67758;BMP180;54562;47.620;18.786;2022-12-17T14:07:13;98848.60;;;-1.10
67758;BMP180;54562;47.620;18.786;2022-12-17T14:10:21;98856.20;;;-1.20
67758;BMP180;54562;47.620;18.786;2022-12-17T14:13:29;98860.60;;;-1.02
67758;BMP180;54562;47.620;18.786;2022-12-17T14:16:38;98855.80;;;-0.90
67758;BMP180;54562;47.620;18.786;2022-12-17T14:20:00;98858.60;;;-0.90
67758;BMP180;54562;47.620;18.786;2022-12-17T14:23:17;98864.00;;;-1.10
67758;BMP180;54562;47.620;18.786;2022-12-17T14:26:28;98859.60;;;-1.20
67758;BMP180;54562;47.620;18.786;2022-12-17T14:29:47;98858.60;;;-1.30
67758;BMP180;54562;47.620;18.786;2022-12-17T14:32:55;98874.00;;;-1.32
67758;BMP180;54562;47.620;18.786;2022-12-17T14:36:14;98890.40;;;-1.40
67758;BMP180;54562;47.620;18.786;2022-12-17T14:39:27;98896.80;;;-1.50
67758;BMP180;54562;47.620;18.786;2022-12-17T14:42:39;98892.80;;;-1.50
67758;BMP180;54562;47.620;18.786;2022-12-17T14:45:56;98895.40;;;-1.60
67758;BMP180;54562;47.620;18.786;2022-12-17T14:49:23;98899.80;;;-1.62
67758;BMP180;54562;47.620;18.786;2022-12-17T14:52:42;98907.40;;;-1.70
67758;BMP180;54562;47.620;18.786;2022-12-17T14:55:57;98911.20;;;-1.72
67758;BMP180;54562;47.620;18.786;2022-12-17T14:59:09;98912.40;;;-1.80
67758;BMP180;54562;47.620;18.786;2022-12-17T15:02:29;98927.80;;;-1.80
67758;BMP180;54562;47.620;18.786;2022-12-17T15:05:40;98931.00;;;-1.80
67758;BMP180;54562;47.620;18.786;2022-12-17T15:08:50;98944.60;;;-1.90
67758;BMP180;54562;47.620;18.786;2022-12-17T15:12:00;98960.20;;;-1.90
67758;BMP180;54562;47.620;18.786;2022-12-17T15:15:12;98973.40;;;-1.90
67758;BMP180;54562;47.620;18.786;2022-12-17T15:18:23;98967.00;;;-1.94
67758;BMP180;54562;47.620;18.786;2022-12-17T15:21:34;98981.20;;;-2.00
67758;BMP180;54562;47.620;18.786;2022-12-17T15:24:45;98979.60;;;-2.00
67758;BMP180;54562;47.620;18.786;2022-12-17T15:27:53;98986.40;;;-2.00
67758;BMP180;54562;47.620;18.786;2022-12-17T15:31:04;98990.40;;;-2.04
67758;BMP180;54562;47.620;18.786;2022-12-17T15:34:13;99004.20;;;-2.10
67758;BMP180;54562;47.620;18.786;2022-12-17T15:37:23;99009.60;;;-2.10
67758;BMP180;54562;47.620;18.786;2022-12-17T15:40:36;99020.20;;;-2.10
67758;BMP180;54562;47.620;18.786;2022-12-17T15:43:45;99019.60;;;-2.10
67758;BMP180;54562;47.620;18.786;2022-12-17T15:46:53;99026.80;;;-2.10
67758;BMP180;54562;47.620;18.786;2022-12-17T15:50:06;99027.40;;;-2.10
67758;BMP180;54562;47.620;18.786;2022-12-17T15:53:12;99029.40;;;-2.18
67758;BMP180;54562;47.620;18.786;2022-12-17T15:56:27;99026.00;;;-2.20
67758;BMP180;54562;47.620;18.786;2022-12-17T15:59:35;99030.80;;;-2.20
67758;BMP180;54562;47.620;18.786;2022-12-17T16:02:45;99029.00;;;-2.20
67758;BMP180;54562;47.620;18.786;2022-12-17T16:05:54;99030.60;;;-2.20
67758;BMP180;54562;47.620;18.786;2022-12-17T16:09:03;99030.40;;;-2.20
67758;BMP180;54562;47.620;18.786;2022-12-17T16:12:11;99039.00;;;-2.20
67758;BMP180;54562;47.620;18.786;2022-12-17T16:15:19;99036.60;;;-2.28
67758;BMP180;54562;47.620;18.786;2022-12-17T16:18:27;99038.60;;;-2.28
67758;BMP180;54562;47.620;18.786;2022-12-17T16:21:35;99046.80;;;-2.28
67758;BMP180;54562;47.620;18.786;2022-12-17T16:24:51;99055.40;;;-2.30
67758;BMP180;54562;47.620;18.786;2022-12-17T16:28:00;99058.20;;;-2.30
67758;BMP180;54562;47.620;18.786;2022-12-17T16:31:12;99060.80;;;-2.30
67758;BMP180;54562;47.620;18.786;2022-12-17T16:34:21;99075.60;;;-2.30
67758;BMP180;54562;47.620;18.786;2022-12-17T16:37:31;99076.00;;;-2.30
67758;BMP180;54562;47.620;18.786;2022-12-17T16:40:42;99091.40;;;-2.34
67758;BMP180;54562;47.620;18.786;2022-12-17T16:43:50;99094.20;;;-2.38
67758;BMP180;54562;47.620;18.786;2022-12-17T16:47:00;99086.60;;;-2.40
67758;BMP180;54562;47.620;18.786;2022-12-17T16:50:10;99086.00;;;-2.40
67758;BMP180;54562;47.620;18.786;2022-12-17T16:53:20;99077.40;;;-2.40
67758;BMP180;54562;47.620;18.786;2022-12-17T16:56:29;99081.20;;;-2.40
67758;BMP180;54562;47.620;18.786;2022-12-17T16:59:46;99080.80;;;-2.40
67758;BMP180;54562;47.620;18.786;2022-12-17T17:02:55;99071.80;;;-2.40
67758;BMP180;54562;47.620;18.786;2022-12-17T17:06:04;99073.20;;;-2.40
67758;BMP180;54562;47.620;18.786;2022-12-17T17:09:14;99077.80;;;-2.40
67758;BMP180;54562;47.620;18.786;2022-12-17T17:12:23;99085.80;;;-2.40
67758;BMP180;54562;47.620;18.786;2022-12-17T17:15:33;99095.20;;;-2.40
67758;BMP180;54562;47.620;18.786;2022-12-17T17:18:41;99100.20;;;-2.40
67758;BMP180;54562;47.620;18.786;2022-12-17T17:21:53;99111.00;;;-2.40
67758;BMP180;54562;47.620;18.786;2022-12-17T17:25:01;99117.00;;;-2.40
67758;BMP180;54562;47.620;18.786;2022-12-17T17:28:10;99118.40;;;-2.44
67758;BMP180;54562;47.620;18.786;2022-12-17T17:31:19;99133.80;;;-2.48
67758;BMP180;54562;47.620;18.786;2022-12-17T17:34:27;99132.40;;;-2.50
67758;BMP180;54562;47.620;18.786;2022-12-17T17:37:35;99144.60;;;-2.50
67758;BMP180;54562;47.620;18.786;2022-12-17T17:40:44;99154.40;;;-2.50
67758;BMP180;54562;47.620;18.786;2022-12-17T17:43:58;99144.80;;;-2.50
67758;BMP180;54562;47.620;18.786;2022-12-17T17:47:06;99149.80;;;-2.50
67758;BMP180;54562;47.620;18.786;2022-12-17T17:50:15;99154.20;;;-2.50
67758;BMP180;54562;47.620;18.786;2022-12-17T17:53:23;99159.00;;;-2.50
67758;BMP180;54562;47.620;18.786;2022-12-17T17:56:33;99166.00;;;-2.50
67758;BMP180;54562;47.620;18.786;2022-12-17T17:59:42;99168.40;;;-2.50
67758;BMP180;54562;47.620;18.786;2022-12-17T18:02:49;99175.00;;;-2.50
67758;BMP180;54562;47.620;18.786;2022-12-17T18:06:01;99180.80;;;-2.50
67758;BMP180;54562;47.620;18.786;2022-12-17T18:09:10;99188.40;;;-2.50
67758;BMP180;54562;47.620;18.786;2022-12-17T18:12:19;99195.80;;;-2.54
67758;BMP180;54562;47.620;18.786;2022-12-17T18:15:46;99203.40;;;-2.60
67758;BMP180;54562;47.620;18.786;2022-12-17T18:18:56;99215.40;;;-2.60
67758;BMP180;54562;47.620;18.786;2022-12-17T18:22:04;99216.60;;;-2.60
67758;BMP180;54562;47.620;18.786;2022-12-17T18:25:12;99228.60;;;-2.60
67758;BMP180;54562;47.620;18.786;2022-12-17T18:28:20;99232.60;;;-2.60
67758;BMP180;54562;47.620;18.786;2022-12-17T18:31:29;99235.20;;;-2.60
67758;BMP180;54562;47.620;18.786;2022-12-17T18:34:38;99242.20;;;-2.64
67758;BMP180;54562;47.620;18.786;2022-12-17T18:37:47;99245.60;;;-2.70
67758;BMP180;54562;47.620;18.786;2022-12-17T18:40:56;99249.20;;;-2.70
67758;BMP180;54562;47.620;18.786;2022-12-17T18:44:12;99246.80;;;-2.70
67758;BMP180;54562;47.620;18.786;2022-12-17T18:47:20;99255.40;;;-2.70
67758;BMP180;54562;47.620;18.786;2022-12-17T18:50:28;99272.80;;;-2.70
67758;BMP180;54562;47.620;18.786;2022-12-17T18:53:36;99276.00;;;-2.70
67758;BMP180;54562;47.620;18.786;2022-12-17T18:56:45;99283.00;;;-2.70
67758;BMP180;54562;47.620;18.786;2022-12-17T19:00:14;99290.60;;;-2.70
67758;BMP180;54562;47.620;18.786;2022-12-17T19:03:21;99288.60;;;-2.70
67758;BMP180;54562;47.620;18.786;2022-12-17T19:06:32;99295.40;;;-2.70
67758;BMP180;54562;47.620;18.786;2022-12-17T19:09:40;99307.40;;;-2.70
67758;BMP180;54562;47.620;18.786;2022-12-17T19:12:48;99319.20;;;-2.70